sensor_id;sensor_type;location;lat;lon;timestamp;temperature;humidity
72883;DHT22;61017;37.812;-122.286;2023-10-09T00:01:16;24.00;54.50
72883;DHT22;61017;37.812;-122.286;2023-10-09T00:02:48;24.00;54.40
72883;DHT22;61017;37.812;-122.286;2023-10-09T00:04:20;24.10;54.30
72883;DHT22;61017;37.812;-122.286;2023-10-09T00:05:51;24.00;54.20
72883;DHT22;61017;37.812;-122.286;2023-10-09T00:07:23;24.00;54.10
72883;DHT22;61017;37.812;-122.286;2023-10-09T00:08:55;24.10;54.20
72883;DHT22;61017;37.812;-122.286;2023-10-09T00:10:26;24.10;54.10
72883;DHT22;61017;37.812;-122.286;2023-10-09T00:11:58;24.10;54.00
72883;DHT22;61017;37.812;-122.286;2023-10-09T00:13:30;24.10;54.00
72883;DHT22;61017;37.812;-122.286;2023-10-09T00:15:05;24.10;53.80
72883;DHT22;61017;37.812;-122.286;2023-10-09T00:16:37;24.10;53.80
72883;DHT22;61017;37.812;-122.286;2023-10-09T00:18:08;24.10;53.80
72883;DHT22;61017;37.812;-122.286;2023-10-09T00:19:40;24.10;53.50
72883;DHT22;61017;37.812;-122.286;2023-10-09T00:21:18;24.20;53.60
72883;DHT22;61017;37.812;-122.286;2023-10-09T00:22:49;24.20;53.60
72883;DHT22;61017;37.812;-122.286;2023-10-09T00:24:21;24.20;53.40
72883;DHT22;61017;37.812;-122.286;2023-10-09T00:25:53;24.20;53.40
72883;DHT22;61017;37.812;-122.286;2023-10-09T00:27:24;24.20;53.40
72883;DHT22;61017;37.812;-122.286;2023-10-09T00:28:56;24.20;53.40
72883;DHT22;61017;37.812;-122.286;2023-10-09T00:30:27;24.20;53.40
72883;DHT22;61017;37.812;-122.286;2023-10-09T00:31:59;24.20;53.40
72883;DHT22;61017;37.812;-122.286;2023-10-09T00:33:30;24.20;53.40
72883;DHT22;61017;37.812;-122.286;2023-10-09T00:35:02;24.20;53.30
72883;DHT22;61017;37.812;-122.286;2023-10-09T00:36:34;24.20;53.20
72883;DHT22;61017;37.812;-122.286;2023-10-09T00:38:07;24.20;53.30
72883;DHT22;61017;37.812;-122.286;2023-10-09T00:39:39;24.20;53.10
72883;DHT22;61017;37.812;-122.286;2023-10-09T00:41:10;24.20;53.20
72883;DHT22;61017;37.812;-122.286;2023-10-09T00:42:42;24.20;53.20
72883;DHT22;61017;37.812;-122.286;2023-10-09T00:44:13;24.20;53.20
72883;DHT22;61017;37.812;-122.286;2023-10-09T00:45:46;24.20;53.20
72883;DHT22;61017;37.812;-122.286;2023-10-09T00:47:18;24.20;53.00
72883;DHT22;61017;37.812;-122.286;2023-10-09T00:48:55;24.20;53.50
72883;DHT22;61017;37.812;-122.286;2023-10-09T00:50:26;24.10;55.20
72883;DHT22;61017;37.812;-122.286;2023-10-09T00:51:59;23.90;55.00
72883;DHT22;61017;37.812;-122.286;2023-10-09T00:53:30;24.00;54.60
72883;DHT22;61017;37.812;-122.286;2023-10-09T00:55:03;24.00;54.30
72883;DHT22;61017;37.812;-122.286;2023-10-09T00:56:35;24.00;54.10
72883;DHT22;61017;37.812;-122.286;2023-10-09T00:58:09;24.10;54.00
72883;DHT22;61017;37.812;-122.286;2023-10-09T00:59:42;24.10;53.80
72883;DHT22;61017;37.812;-122.286;2023-10-09T01:01:14;24.10;53.70
72883;DHT22;61017;37.812;-122.286;2023-10-09T01:02:46;24.20;53.60
72883;DHT22;61017;37.812;-122.286;2023-10-09T01:04:17;24.20;53.40
72883;DHT22;61017;37.812;-122.286;2023-10-09T01:05:56;24.20;53.40
72883;DHT22;61017;37.812;-122.286;2023-10-09T01:07:27;24.20;53.20
72883;DHT22;61017;37.812;-122.286;2023-10-09T01:08:59;24.20;53.00
72883;DHT22;61017;37.812;-122.286;2023-10-09T01:10:44;24.20;53.00
72883;DHT22;61017;37.812;-122.286;2023-10-09T01:12:16;24.30;53.00
72883;DHT22;61017;37.812;-122.286;2023-10-09T01:13:48;24.20;52.80
72883;DHT22;61017;37.812;-122.286;2023-10-09T01:15:20;24.30;52.90
72883;DHT22;61017;37.812;-122.286;2023-10-09T01:16:52;24.20;52.80
72883;DHT22;61017;37.812;-122.286;2023-10-09T01:18:25;24.20;52.70
72883;DHT22;61017;37.812;-122.286;2023-10-09T01:19:58;24.30;52.70
72883;DHT22;61017;37.812;-122.286;2023-10-09T01:21:29;24.30;52.50
72883;DHT22;61017;37.812;-122.286;2023-10-09T01:23:02;24.30;52.60
72883;DHT22;61017;37.812;-122.286;2023-10-09T01:24:34;24.30;52.40
72883;DHT22;61017;37.812;-122.286;2023-10-09T01:26:05;24.30;52.50
72883;DHT22;61017;37.812;-122.286;2023-10-09T01:27:37;24.30;52.50
72883;DHT22;61017;37.812;-122.286;2023-10-09T01:29:30;24.30;52.40
72883;DHT22;61017;37.812;-122.286;2023-10-09T01:31:01;24.30;52.40
72883;DHT22;61017;37.812;-122.286;2023-10-09T01:32:33;24.30;52.30
72883;DHT22;61017;37.812;-122.286;2023-10-09T01:34:04;24.30;52.30
72883;DHT22;61017;37.812;-122.286;2023-10-09T01:35:37;24.30;52.30
72883;DHT22;61017;37.812;-122.286;2023-10-09T01:37:11;24.30;52.20
72883;DHT22;61017;37.812;-122.286;2023-10-09T01:38:42;24.40;52.20
72883;DHT22;61017;37.812;-122.286;2023-10-09T01:40:14;24.30;52.20
72883;DHT22;61017;37.812;-122.286;2023-10-09T01:41:49;24.40;52.20
72883;DHT22;61017;37.812;-122.286;2023-10-09T01:43:21;24.40;52.30
72883;DHT22;61017;37.812;-122.286;2023-10-09T01:44:53;24.30;52.20
72883;DHT22;61017;37.812;-122.286;2023-10-09T01:46:25;24.40;52.30
72883;DHT22;61017;37.812;-122.286;2023-10-09T01:47:56;24.30;52.20
72883;DHT22;61017;37.812;-122.286;2023-10-09T01:49:28;24.40;52.20
72883;DHT22;61017;37.812;-122.286;2023-10-09T01:50:59;24.40;52.10
72883;DHT22;61017;37.812;-122.286;2023-10-09T01:52:31;24.30;52.10
72883;DHT22;61017;37.812;-122.286;2023-10-09T01:54:03;24.30;52.00
72883;DHT22;61017;37.812;-122.286;2023-10-09T01:55:40;24.40;52.10
72883;DHT22;61017;37.812;-122.286;2023-10-09T01:57:12;24.40;52.10
72883;DHT22;61017;37.812;-122.286;2023-10-09T01:58:43;24.40;52.10
72883;DHT22;61017;37.812;-122.286;2023-10-09T02:00:15;24.40;52.00
72883;DHT22;61017;37.812;-122.286;2023-10-09T02:01:47;24.40;52.00
72883;DHT22;61017;37.812;-122.286;2023-10-09T02:03:18;24.40;52.00
72883;DHT22;61017;37.812;-122.286;2023-10-09T02:04:50;24.40;52.00
72883;DHT22;61017;37.812;-122.286;2023-10-09T02:06:22;24.40;52.00
72883;DHT22;61017;37.812;-122.286;2023-10-09T02:07:53;24.40;52.00
72883;DHT22;61017;37.812;-122.286;2023-10-09T02:09:25;24.40;52.00
72883;DHT22;61017;37.812;-122.286;2023-10-09T02:10:56;24.40;51.80
72883;DHT22;61017;37.812;-122.286;2023-10-09T02:12:28;24.40;51.80
72883;DHT22;61017;37.812;-122.286;2023-10-09T02:14:00;24.40;51.90
72883;DHT22;61017;37.812;-122.286;2023-10-09T02:15:36;24.40;51.90
72883;DHT22;61017;37.812;-122.286;2023-10-09T02:17:14;24.40;51.80
72883;DHT22;61017;37.812;-122.286;2023-10-09T02:18:46;24.40;51.90
72883;DHT22;61017;37.812;-122.286;2023-10-09T02:20:18;24.40;51.80
72883;DHT22;61017;37.812;-122.286;2023-10-09T02:21:49;24.40;51.80
72883;DHT22;61017;37.812;-122.286;2023-10-09T02:23:23;24.40;51.90
72883;DHT22;61017;37.812;-122.286;2023-10-09T02:24:57;24.40;51.80
72883;DHT22;61017;37.812;-122.286;2023-10-09T02:26:29;24.40;51.90
72883;DHT22;61017;37.812;-122.286;2023-10-09T02:28:01;24.40;51.80
72883;DHT22;61017;37.812;-122.286;2023-10-09T02:29:32;24.40;51.90
72883;DHT22;61017;37.812;-122.286;2023-10-09T02:31:11;24.40;51.80
72883;DHT22;61017;37.812;-122.286;2023-10-09T02:32:43;24.40;52.00
72883;DHT22;61017;37.812;-122.286;2023-10-09T02:34:15;24.40;52.00
72883;DHT22;61017;37.812;-122.286;2023-10-09T02:35:47;24.40;52.10
72883;DHT22;61017;37.812;-122.286;2023-10-09T02:37:18;24.30;52.10
72883;DHT22;61017;37.812;-122.286;2023-10-09T02:38:50;24.30;52.10
72883;DHT22;61017;37.812;-122.286;2023-10-09T02:40:21;24.30;52.40
72883;DHT22;61017;37.812;-122.286;2023-10-09T02:41:54;24.20;52.50
72883;DHT22;61017;37.812;-122.286;2023-10-09T02:43:27;24.20;52.60
72883;DHT22;61017;37.812;-122.286;2023-10-09T02:44:58;24.20;52.80
72883;DHT22;61017;37.812;-122.286;2023-10-09T02:46:33;24.20;53.00
72883;DHT22;61017;37.812;-122.286;2023-10-09T02:48:04;24.20;53.10
72883;DHT22;61017;37.812;-122.286;2023-10-09T02:49:36;24.10;53.10
72883;DHT22;61017;37.812;-122.286;2023-10-09T02:51:08;24.10;53.30
72883;DHT22;61017;37.812;-122.286;2023-10-09T02:52:40;24.00;54.90
72883;DHT22;61017;37.812;-122.286;2023-10-09T02:54:12;23.80;55.40
72883;DHT22;61017;37.812;-122.286;2023-10-09T02:55:44;23.80;54.60
72883;DHT22;61017;37.812;-122.286;2023-10-09T02:57:15;23.90;54.20
72883;DHT22;61017;37.812;-122.286;2023-10-09T02:58:47;23.90;53.80
72883;DHT22;61017;37.812;-122.286;2023-10-09T03:00:18;24.00;53.60
72883;DHT22;61017;37.812;-122.286;2023-10-09T03:01:50;24.00;53.30
72883;DHT22;61017;37.812;-122.286;2023-10-09T03:03:22;24.10;53.30
72883;DHT22;61017;37.812;-122.286;2023-10-09T03:04:54;24.10;53.20
72883;DHT22;61017;37.812;-122.286;2023-10-09T03:06:25;24.10;53.00
72883;DHT22;61017;37.812;-122.286;2023-10-09T03:07:57;24.20;53.60
72883;DHT22;61017;37.812;-122.286;2023-10-09T03:09:28;24.20;53.10
72883;DHT22;61017;37.812;-122.286;2023-10-09T03:11:00;24.30;52.80
72883;DHT22;61017;37.812;-122.286;2023-10-09T03:12:31;24.40;52.80
72883;DHT22;61017;37.812;-122.286;2023-10-09T03:14:03;24.40;52.60
72883;DHT22;61017;37.812;-122.286;2023-10-09T03:15:35;24.40;53.20
72883;DHT22;61017;37.812;-122.286;2023-10-09T03:17:06;24.30;53.10
72883;DHT22;61017;37.812;-122.286;2023-10-09T03:18:39;24.30;53.20
72883;DHT22;61017;37.812;-122.286;2023-10-09T03:20:10;24.20;53.20
72883;DHT22;61017;37.812;-122.286;2023-10-09T03:21:42;24.20;53.20
72883;DHT22;61017;37.812;-122.286;2023-10-09T03:23:14;24.20;53.30
72883;DHT22;61017;37.812;-122.286;2023-10-09T03:24:45;24.20;53.30
72883;DHT22;61017;37.812;-122.286;2023-10-09T03:26:18;24.20;53.40
72883;DHT22;61017;37.812;-122.286;2023-10-09T03:27:49;24.20;53.40
72883;DHT22;61017;37.812;-122.286;2023-10-09T03:29:24;24.20;53.40
72883;DHT22;61017;37.812;-122.286;2023-10-09T03:30:55;24.20;53.20
72883;DHT22;61017;37.812;-122.286;2023-10-09T03:32:27;24.20;53.10
72883;DHT22;61017;37.812;-122.286;2023-10-09T03:33:59;24.20;53.00
72883;DHT22;61017;37.812;-122.286;2023-10-09T03:35:31;24.20;52.90
72883;DHT22;61017;37.812;-122.286;2023-10-09T03:37:02;24.20;52.90
72883;DHT22;61017;37.812;-122.286;2023-10-09T03:38:34;24.20;52.80
72883;DHT22;61017;37.812;-122.286;2023-10-09T03:40:06;24.20;52.60
72883;DHT22;61017;37.812;-122.286;2023-10-09T03:41:37;24.20;52.60
72883;DHT22;61017;37.812;-122.286;2023-10-09T03:43:10;24.20;53.10
72883;DHT22;61017;37.812;-122.286;2023-10-09T03:44:41;24.20;52.40
72883;DHT22;61017;37.812;-122.286;2023-10-09T03:46:14;24.20;52.40
72883;DHT22;61017;37.812;-122.286;2023-10-09T03:47:45;24.20;52.50
72883;DHT22;61017;37.812;-122.286;2023-10-09T03:49:17;24.20;52.50
72883;DHT22;61017;37.812;-122.286;2023-10-09T03:50:48;24.20;52.50
72883;DHT22;61017;37.812;-122.286;2023-10-09T03:52:21;24.20;52.50
72883;DHT22;61017;37.812;-122.286;2023-10-09T03:53:52;24.20;52.60
72883;DHT22;61017;37.812;-122.286;2023-10-09T03:55:24;24.10;52.60
72883;DHT22;61017;37.812;-122.286;2023-10-09T03:56:55;24.10;52.80
72883;DHT22;61017;37.812;-122.286;2023-10-09T03:58:27;24.10;52.90
72883;DHT22;61017;37.812;-122.286;2023-10-09T03:59:58;24.00;53.00
72883;DHT22;61017;37.812;-122.286;2023-10-09T04:01:30;24.00;53.10
72883;DHT22;61017;37.812;-122.286;2023-10-09T04:03:03;24.00;53.30
72883;DHT22;61017;37.812;-122.286;2023-10-09T04:04:35;24.00;53.40
72883;DHT22;61017;37.812;-122.286;2023-10-09T04:06:07;24.00;53.50
72883;DHT22;61017;37.812;-122.286;2023-10-09T04:07:38;24.00;53.50
72883;DHT22;61017;37.812;-122.286;2023-10-09T04:09:11;23.90;54.70
72883;DHT22;61017;37.812;-122.286;2023-10-09T04:10:42;23.80;55.70
72883;DHT22;61017;37.812;-122.286;2023-10-09T04:12:14;23.70;54.70
72883;DHT22;61017;37.812;-122.286;2023-10-09T04:13:45;23.80;54.20
72883;DHT22;61017;37.812;-122.286;2023-10-09T04:15:20;23.80;53.90
72883;DHT22;61017;37.812;-122.286;2023-10-09T04:16:52;23.90;53.70
72883;DHT22;61017;37.812;-122.286;2023-10-09T04:18:23;23.90;53.30
72883;DHT22;61017;37.812;-122.286;2023-10-09T04:19:55;24.00;53.30
72883;DHT22;61017;37.812;-122.286;2023-10-09T04:21:27;24.00;52.90
72883;DHT22;61017;37.812;-122.286;2023-10-09T04:22:58;24.00;52.80
72883;DHT22;61017;37.812;-122.286;2023-10-09T04:24:30;24.10;52.70
72883;DHT22;61017;37.812;-122.286;2023-10-09T04:26:01;24.10;52.40
72883;DHT22;61017;37.812;-122.286;2023-10-09T04:27:33;24.10;52.30
72883;DHT22;61017;37.812;-122.286;2023-10-09T04:29:05;24.10;52.20
72883;DHT22;61017;37.812;-122.286;2023-10-09T04:30:40;24.20;52.30
72883;DHT22;61017;37.812;-122.286;2023-10-09T04:32:12;24.20;52.20
72883;DHT22;61017;37.812;-122.286;2023-10-09T04:33:43;24.20;52.10
72883;DHT22;61017;37.812;-122.286;2023-10-09T04:35:15;24.20;52.00
72883;DHT22;61017;37.812;-122.286;2023-10-09T04:36:46;24.20;52.00
72883;DHT22;61017;37.812;-122.286;2023-10-09T04:38:18;24.20;51.90
72883;DHT22;61017;37.812;-122.286;2023-10-09T04:39:50;24.20;52.60
72883;DHT22;61017;37.812;-122.286;2023-10-09T04:41:22;24.20;51.90
72883;DHT22;61017;37.812;-122.286;2023-10-09T04:42:54;24.20;51.70
72883;DHT22;61017;37.812;-122.286;2023-10-09T04:44:25;24.20;51.70
72883;DHT22;61017;37.812;-122.286;2023-10-09T04:45:58;24.20;51.90
72883;DHT22;61017;37.812;-122.286;2023-10-09T04:47:37;24.10;53.40
72883;DHT22;61017;37.812;-122.286;2023-10-09T04:49:10;23.90;55.00
72883;DHT22;61017;37.812;-122.286;2023-10-09T04:50:42;23.70;55.70
72883;DHT22;61017;37.812;-122.286;2023-10-09T04:52:17;23.60;56.40
72883;DHT22;61017;37.812;-122.286;2023-10-09T04:53:49;23.50;56.90
72883;DHT22;61017;37.812;-122.286;2023-10-09T04:55:21;23.40;57.30
72883;DHT22;61017;37.812;-122.286;2023-10-09T04:56:52;23.30;58.00
72883;DHT22;61017;37.812;-122.286;2023-10-09T04:58:25;23.20;58.10
72883;DHT22;61017;37.812;-122.286;2023-10-09T04:59:57;23.10;58.80
72883;DHT22;61017;37.812;-122.286;2023-10-09T05:01:29;23.00;59.30
72883;DHT22;61017;37.812;-122.286;2023-10-09T05:03:02;23.00;59.70
72883;DHT22;61017;37.812;-122.286;2023-10-09T05:04:34;22.90;60.00
72883;DHT22;61017;37.812;-122.286;2023-10-09T05:06:06;22.90;60.30
72883;DHT22;61017;37.812;-122.286;2023-10-09T05:07:38;22.80;60.60
72883;DHT22;61017;37.812;-122.286;2023-10-09T05:09:10;22.80;61.00
72883;DHT22;61017;37.812;-122.286;2023-10-09T05:10:42;22.80;61.60
72883;DHT22;61017;37.812;-122.286;2023-10-09T05:12:14;22.70;61.90
72883;DHT22;61017;37.812;-122.286;2023-10-09T05:13:46;22.70;62.20
72883;DHT22;61017;37.812;-122.286;2023-10-09T05:15:17;22.70;62.40
72883;DHT22;61017;37.812;-122.286;2023-10-09T05:16:49;22.60;62.80
72883;DHT22;61017;37.812;-122.286;2023-10-09T05:18:21;22.60;62.90
72883;DHT22;61017;37.812;-122.286;2023-10-09T05:19:52;22.60;63.10
72883;DHT22;61017;37.812;-122.286;2023-10-09T05:21:29;22.60;63.20
72883;DHT22;61017;37.812;-122.286;2023-10-09T05:23:01;22.60;63.60
72883;DHT22;61017;37.812;-122.286;2023-10-09T05:24:33;22.60;63.80
72883;DHT22;61017;37.812;-122.286;2023-10-09T05:26:05;22.50;64.10
72883;DHT22;61017;37.812;-122.286;2023-10-09T05:27:37;22.50;64.20
72883;DHT22;61017;37.812;-122.286;2023-10-09T05:29:09;22.50;64.30
72883;DHT22;61017;37.812;-122.286;2023-10-09T05:30:40;22.50;64.50
72883;DHT22;61017;37.812;-122.286;2023-10-09T05:32:12;22.50;64.70
72883;DHT22;61017;37.812;-122.286;2023-10-09T05:33:43;22.50;65.20
72883;DHT22;61017;37.812;-122.286;2023-10-09T05:35:15;22.50;65.10
72883;DHT22;61017;37.812;-122.286;2023-10-09T05:36:47;22.40;65.30
72883;DHT22;61017;37.812;-122.286;2023-10-09T05:38:19;22.40;65.40
72883;DHT22;61017;37.812;-122.286;2023-10-09T05:39:55;22.40;65.60
72883;DHT22;61017;37.812;-122.286;2023-10-09T05:41:27;22.40;65.60
72883;DHT22;61017;37.812;-122.286;2023-10-09T05:42:59;22.30;65.70
72883;DHT22;61017;37.812;-122.286;2023-10-09T05:44:30;22.30;65.90
72883;DHT22;61017;37.812;-122.286;2023-10-09T05:46:02;22.30;65.90
72883;DHT22;61017;37.812;-122.286;2023-10-09T05:47:35;22.30;66.10
72883;DHT22;61017;37.812;-122.286;2023-10-09T05:49:09;22.30;66.30
72883;DHT22;61017;37.812;-122.286;2023-10-09T05:50:41;22.30;66.50
72883;DHT22;61017;37.812;-122.286;2023-10-09T05:52:13;22.30;66.60
72883;DHT22;61017;37.812;-122.286;2023-10-09T05:53:45;22.30;66.50
72883;DHT22;61017;37.812;-122.286;2023-10-09T05:55:16;22.30;66.60
72883;DHT22;61017;37.812;-122.286;2023-10-09T05:56:48;22.20;66.70
72883;DHT22;61017;37.812;-122.286;2023-10-09T05:58:20;22.20;66.90
72883;DHT22;61017;37.812;-122.286;2023-10-09T05:59:51;22.20;66.90
72883;DHT22;61017;37.812;-122.286;2023-10-09T06:01:23;22.20;67.10
72883;DHT22;61017;37.812;-122.286;2023-10-09T06:02:54;22.20;67.10
72883;DHT22;61017;37.812;-122.286;2023-10-09T06:04:26;22.20;67.30
72883;DHT22;61017;37.812;-122.286;2023-10-09T06:05:57;22.20;67.30
72883;DHT22;61017;37.812;-122.286;2023-10-09T06:07:29;22.20;67.60
72883;DHT22;61017;37.812;-122.286;2023-10-09T06:09:02;22.20;67.70
72883;DHT22;61017;37.812;-122.286;2023-10-09T06:10:34;22.10;67.70
72883;DHT22;61017;37.812;-122.286;2023-10-09T06:12:09;22.10;67.70
72883;DHT22;61017;37.812;-122.286;2023-10-09T06:13:41;22.10;67.80
72883;DHT22;61017;37.812;-122.286;2023-10-09T06:15:12;22.10;68.00
72883;DHT22;61017;37.812;-122.286;2023-10-09T06:16:44;22.10;68.10
72883;DHT22;61017;37.812;-122.286;2023-10-09T06:18:15;22.10;68.30
72883;DHT22;61017;37.812;-122.286;2023-10-09T06:19:47;22.10;68.30
72883;DHT22;61017;37.812;-122.286;2023-10-09T06:21:19;22.00;68.50
72883;DHT22;61017;37.812;-122.286;2023-10-09T06:22:50;22.00;68.40
72883;DHT22;61017;37.812;-122.286;2023-10-09T06:24:25;22.00;68.60
72883;DHT22;61017;37.812;-122.286;2023-10-09T06:25:56;22.00;68.70
72883;DHT22;61017;37.812;-122.286;2023-10-09T06:27:28;22.00;68.90
72883;DHT22;61017;37.812;-122.286;2023-10-09T06:29:00;22.00;69.00
72883;DHT22;61017;37.812;-122.286;2023-10-09T06:30:34;22.00;68.90
72883;DHT22;61017;37.812;-122.286;2023-10-09T06:32:08;21.90;69.00
72883;DHT22;61017;37.812;-122.286;2023-10-09T06:33:40;21.90;69.00
72883;DHT22;61017;37.812;-122.286;2023-10-09T06:35:13;21.90;69.20
72883;DHT22;61017;37.812;-122.286;2023-10-09T06:36:45;21.90;69.20
72883;DHT22;61017;37.812;-122.286;2023-10-09T06:38:16;21.90;69.20
72883;DHT22;61017;37.812;-122.286;2023-10-09T06:39:51;21.90;69.50
72883;DHT22;61017;37.812;-122.286;2023-10-09T06:41:25;21.90;69.50
72883;DHT22;61017;37.812;-122.286;2023-10-09T06:42:57;21.90;69.50
72883;DHT22;61017;37.812;-122.286;2023-10-09T06:44:29;21.90;69.60
72883;DHT22;61017;37.812;-122.286;2023-10-09T06:46:01;21.80;69.40
72883;DHT22;61017;37.812;-122.286;2023-10-09T06:47:32;21.80;69.60
72883;DHT22;61017;37.812;-122.286;2023-10-09T06:49:04;21.80;69.60
72883;DHT22;61017;37.812;-122.286;2023-10-09T06:50:36;21.80;69.60
72883;DHT22;61017;37.812;-122.286;2023-10-09T06:52:08;21.80;69.90
72883;DHT22;61017;37.812;-122.286;2023-10-09T06:53:40;21.80;69.90
72883;DHT22;61017;37.812;-122.286;2023-10-09T06:55:11;21.80;69.90
72883;DHT22;61017;37.812;-122.286;2023-10-09T06:56:43;21.80;69.90
72883;DHT22;61017;37.812;-122.286;2023-10-09T06:58:18;21.80;70.20
72883;DHT22;61017;37.812;-122.286;2023-10-09T06:59:50;21.80;69.80
72883;DHT22;61017;37.812;-122.286;2023-10-09T07:01:22;21.80;70.00
72883;DHT22;61017;37.812;-122.286;2023-10-09T07:02:53;21.80;70.00
72883;DHT22;61017;37.812;-122.286;2023-10-09T07:04:25;21.70;70.00
72883;DHT22;61017;37.812;-122.286;2023-10-09T07:06:04;21.80;70.20
72883;DHT22;61017;37.812;-122.286;2023-10-09T07:07:36;21.70;70.20
72883;DHT22;61017;37.812;-122.286;2023-10-09T07:09:07;21.70;70.30
72883;DHT22;61017;37.812;-122.286;2023-10-09T07:10:39;21.70;70.90
72883;DHT22;61017;37.812;-122.286;2023-10-09T07:12:11;21.70;70.20
72883;DHT22;61017;37.812;-122.286;2023-10-09T07:13:42;21.70;70.20
72883;DHT22;61017;37.812;-122.286;2023-10-09T07:15:14;21.70;70.20
72883;DHT22;61017;37.812;-122.286;2023-10-09T07:16:45;21.70;70.40
72883;DHT22;61017;37.812;-122.286;2023-10-09T07:18:20;21.70;70.60
72883;DHT22;61017;37.812;-122.286;2023-10-09T07:19:53;21.70;70.50
72883;DHT22;61017;37.812;-122.286;2023-10-09T07:21:25;21.70;70.50
72883;DHT22;61017;37.812;-122.286;2023-10-09T07:22:57;21.70;70.50
72883;DHT22;61017;37.812;-122.286;2023-10-09T07:24:32;21.70;70.40
72883;DHT22;61017;37.812;-122.286;2023-10-09T07:26:05;21.70;70.60
72883;DHT22;61017;37.812;-122.286;2023-10-09T07:27:36;21.70;70.70
72883;DHT22;61017;37.812;-122.286;2023-10-09T07:29:08;21.70;70.70
72883;DHT22;61017;37.812;-122.286;2023-10-09T07:30:39;21.60;70.50
72883;DHT22;61017;37.812;-122.286;2023-10-09T07:32:11;21.70;70.80
72883;DHT22;61017;37.812;-122.286;2023-10-09T07:33:42;21.60;70.80
72883;DHT22;61017;37.812;-122.286;2023-10-09T07:35:14;21.60;70.80
72883;DHT22;61017;37.812;-122.286;2023-10-09T07:36:45;21.60;70.80
72883;DHT22;61017;37.812;-122.286;2023-10-09T07:38:23;21.60;70.80
72883;DHT22;61017;37.812;-122.286;2023-10-09T07:39:54;21.60;70.80
72883;DHT22;61017;37.812;-122.286;2023-10-09T07:41:30;21.60;70.80
72883;DHT22;61017;37.812;-122.286;2023-10-09T07:43:02;21.60;70.80
72883;DHT22;61017;37.812;-122.286;2023-10-09T07:44:33;21.60;70.90
72883;DHT22;61017;37.812;-122.286;2023-10-09T07:46:06;21.60;70.90
72883;DHT22;61017;37.812;-122.286;2023-10-09T07:47:38;21.60;70.90
72883;DHT22;61017;37.812;-122.286;2023-10-09T07:49:09;21.60;70.90
72883;DHT22;61017;37.812;-122.286;2023-10-09T07:50:41;21.60;70.90
72883;DHT22;61017;37.812;-122.286;2023-10-09T07:52:12;21.60;71.10
72883;DHT22;61017;37.812;-122.286;2023-10-09T07:53:44;21.60;71.10
72883;DHT22;61017;37.812;-122.286;2023-10-09T07:55:17;21.60;71.20
72883;DHT22;61017;37.812;-122.286;2023-10-09T07:56:48;21.60;71.30
72883;DHT22;61017;37.812;-122.286;2023-10-09T07:58:21;21.50;71.10
72883;DHT22;61017;37.812;-122.286;2023-10-09T07:59:53;21.50;71.00
72883;DHT22;61017;37.812;-122.286;2023-10-09T08:01:25;21.50;71.10
72883;DHT22;61017;37.812;-122.286;2023-10-09T08:02:57;21.50;71.40
72883;DHT22;61017;37.812;-122.286;2023-10-09T08:04:29;21.50;71.20
72883;DHT22;61017;37.812;-122.286;2023-10-09T08:06:01;21.50;71.30
72883;DHT22;61017;37.812;-122.286;2023-10-09T08:07:33;21.50;71.20
72883;DHT22;61017;37.812;-122.286;2023-10-09T08:09:11;21.50;71.30
72883;DHT22;61017;37.812;-122.286;2023-10-09T08:10:43;21.50;71.40
72883;DHT22;61017;37.812;-122.286;2023-10-09T08:12:15;21.50;71.30
72883;DHT22;61017;37.812;-122.286;2023-10-09T08:13:47;21.50;71.40
72883;DHT22;61017;37.812;-122.286;2023-10-09T08:15:19;21.50;71.60
72883;DHT22;61017;37.812;-122.286;2023-10-09T08:16:51;21.50;71.30
72883;DHT22;61017;37.812;-122.286;2023-10-09T08:18:22;21.50;71.30
72883;DHT22;61017;37.812;-122.286;2023-10-09T08:19:57;21.50;71.40
72883;DHT22;61017;37.812;-122.286;2023-10-09T08:21:28;21.50;71.40
72883;DHT22;61017;37.812;-122.286;2023-10-09T08:23:00;21.50;71.40
72883;DHT22;61017;37.812;-122.286;2023-10-09T08:24:31;21.50;71.50
72883;DHT22;61017;37.812;-122.286;2023-10-09T08:26:04;21.50;71.60
72883;DHT22;61017;37.812;-122.286;2023-10-09T08:27:35;21.50;71.50
72883;DHT22;61017;37.812;-122.286;2023-10-09T08:29:07;21.50;71.50
72883;DHT22;61017;37.812;-122.286;2023-10-09T08:30:39;21.50;71.50
72883;DHT22;61017;37.812;-122.286;2023-10-09T08:32:10;21.50;71.50
72883;DHT22;61017;37.812;-122.286;2023-10-09T08:33:42;21.50;71.60
72883;DHT22;61017;37.812;-122.286;2023-10-09T08:35:13;21.50;71.60
72883;DHT22;61017;37.812;-122.286;2023-10-09T08:36:45;21.40;71.60
72883;DHT22;61017;37.812;-122.286;2023-10-09T08:38:17;21.40;71.60
72883;DHT22;61017;37.812;-122.286;2023-10-09T08:39:49;21.40;71.50
72883;DHT22;61017;37.812;-122.286;2023-10-09T08:41:21;21.40;71.60
72883;DHT22;61017;37.812;-122.286;2023-10-09T08:42:53;21.40;71.70
72883;DHT22;61017;37.812;-122.286;2023-10-09T08:44:26;21.40;71.70
72883;DHT22;61017;37.812;-122.286;2023-10-09T08:45:57;21.40;71.70
72883;DHT22;61017;37.812;-122.286;2023-10-09T08:47:30;21.40;71.60
72883;DHT22;61017;37.812;-122.286;2023-10-09T08:49:02;21.40;71.70
72883;DHT22;61017;37.812;-122.286;2023-10-09T08:50:34;21.40;71.80
72883;DHT22;61017;37.812;-122.286;2023-10-09T08:52:06;21.40;71.90
72883;DHT22;61017;37.812;-122.286;2023-10-09T08:53:39;21.40;71.90
72883;DHT22;61017;37.812;-122.286;2023-10-09T08:55:11;21.40;71.80
72883;DHT22;61017;37.812;-122.286;2023-10-09T08:56:46;21.40;71.70
72883;DHT22;61017;37.812;-122.286;2023-10-09T08:58:18;21.40;71.70
72883;DHT22;61017;37.812;-122.286;2023-10-09T08:59:49;21.40;71.80
72883;DHT22;61017;37.812;-122.286;2023-10-09T09:01:21;21.40;71.80
72883;DHT22;61017;37.812;-122.286;2023-10-09T09:02:53;21.40;71.90
72883;DHT22;61017;37.812;-122.286;2023-10-09T09:04:41;21.40;71.90
72883;DHT22;61017;37.812;-122.286;2023-10-09T09:06:12;21.40;71.90
72883;DHT22;61017;37.812;-122.286;2023-10-09T09:07:44;21.40;71.90
72883;DHT22;61017;37.812;-122.286;2023-10-09T09:09:16;21.40;72.00
72883;DHT22;61017;37.812;-122.286;2023-10-09T09:10:56;21.40;72.00
72883;DHT22;61017;37.812;-122.286;2023-10-09T09:12:27;21.40;72.00
72883;DHT22;61017;37.812;-122.286;2023-10-09T09:14:00;21.40;72.00
72883;DHT22;61017;37.812;-122.286;2023-10-09T09:15:31;21.40;72.10
72883;DHT22;61017;37.812;-122.286;2023-10-09T09:17:03;21.40;72.00